sensor_id;sensor_type;location;lat;lon;timestamp;P1;durP1;ratioP1;P2;durP2;ratioP2
55993;SDS011;67425;52.126;20.638;2024-01-15T00:01:16;17.33;;;8.13;;
55993;SDS011;67425;52.126;20.638;2024-01-15T00:03:42;13.20;;;7.40;;
55993;SDS011;67425;52.126;20.638;2024-01-15T00:06:07;10.85;;;5.18;;
55993;SDS011;67425;52.126;20.638;2024-01-15T00:08:33;19.10;;;7.18;;
55993;SDS011;67425;52.126;20.638;2024-01-15T00:10:58;10.95;;;4.43;;
55993;SDS011;67425;52.126;20.638;2024-01-15T00:13:23;17.77;;;7.22;;
55993;SDS011;67425;52.126;20.638;2024-01-15T00:15:49;16.88;;;7.35;;
55993;SDS011;67425;52.126;20.638;2024-01-15T00:18:14;11.77;;;4.75;;
55993;SDS011;67425;52.126;20.638;2024-01-15T00:20:39;15.25;;;7.25;;
55993;SDS011;67425;52.126;20.638;2024-01-15T00:23:05;10.02;;;5.05;;
55993;SDS011;67425;52.126;20.638;2024-01-15T00:25:30;4.95;;;3.25;;
55993;SDS011;67425;52.126;20.638;2024-01-15T00:27:55;14.05;;;7.25;;
55993;SDS011;67425;52.126;20.638;2024-01-15T00:30:21;9.20;;;5.47;;
55993;SDS011;67425;52.126;20.638;2024-01-15T00:32:46;10.90;;;6.40;;
55993;SDS011;67425;52.126;20.638;2024-01-15T00:35:11;12.85;;;8.23;;
55993;SDS011;67425;52.126;20.638;2024-01-15T00:37:37;14.90;;;6.80;;
55993;SDS011;67425;52.126;20.638;2024-01-15T00:40:03;17.75;;;8.68;;
55993;SDS011;67425;52.126;20.638;2024-01-15T00:42:29;11.88;;;4.97;;
55993;SDS011;67425;52.126;20.638;2024-01-15T00:44:54;18.00;;;8.55;;
55993;SDS011;67425;52.126;20.638;2024-01-15T00:47:20;12.48;;;7.38;;
55993;SDS011;67425;52.126;20.638;2024-01-15T00:49:45;9.68;;;5.63;;
55993;SDS011;67425;52.126;20.638;2024-01-15T00:52:10;15.55;;;7.57;;
55993;SDS011;67425;52.126;20.638;2024-01-15T00:54:36;17.05;;;8.82;;
55993;SDS011;67425;52.126;20.638;2024-01-15T00:57:01;12.75;;;7.22;;
55993;SDS011;67425;52.126;20.638;2024-01-15T00:59:26;19.95;;;9.65;;
55993;SDS011;67425;52.126;20.638;2024-01-15T01:01:52;12.35;;;8.43;;
55993;SDS011;67425;52.126;20.638;2024-01-15T01:04:17;14.68;;;8.13;;
55993;SDS011;67425;52.126;20.638;2024-01-15T01:06:42;10.40;;;6.38;;
55993;SDS011;67425;52.126;20.638;2024-01-15T01:09:08;18.45;;;8.98;;
55993;SDS011;67425;52.126;20.638;2024-01-15T01:11:33;15.30;;;8.00;;
55993;SDS011;67425;52.126;20.638;2024-01-15T01:13:58;19.95;;;9.45;;
55993;SDS011;67425;52.126;20.638;2024-01-15T01:16:24;15.23;;;8.60;;
55993;SDS011;67425;52.126;20.638;2024-01-15T01:18:49;15.75;;;9.43;;
55993;SDS011;67425;52.126;20.638;2024-01-15T01:21:15;12.68;;;7.30;;
55993;SDS011;67425;52.126;20.638;2024-01-15T01:23:40;21.15;;;9.38;;
55993;SDS011;67425;52.126;20.638;2024-01-15T01:26:06;15.90;;;8.80;;
55993;SDS011;67425;52.126;20.638;2024-01-15T01:28:31;17.23;;;9.00;;
55993;SDS011;67425;52.126;20.638;2024-01-15T01:30:56;19.23;;;10.52;;
55993;SDS011;67425;52.126;20.638;2024-01-15T01:33:22;17.52;;;8.85;;
55993;SDS011;67425;52.126;20.638;2024-01-15T01:35:47;30.30;;;11.52;;
55993;SDS011;67425;52.126;20.638;2024-01-15T01:38:12;17.38;;;8.70;;
55993;SDS011;67425;52.126;20.638;2024-01-15T01:40:38;25.52;;;8.88;;
55993;SDS011;67425;52.126;20.638;2024-01-15T01:43:08;24.02;;;9.68;;
55993;SDS011;67425;52.126;20.638;2024-01-15T01:45:34;21.60;;;9.88;;
55993;SDS011;67425;52.126;20.638;2024-01-15T01:48:00;17.90;;;8.38;;
55993;SDS011;67425;52.126;20.638;2024-01-15T01:50:26;16.65;;;7.13;;
55993;SDS011;67425;52.126;20.638;2024-01-15T01:52:54;17.08;;;7.95;;
55993;SDS011;67425;52.126;20.638;2024-01-15T01:55:20;21.60;;;11.57;;
55993;SDS011;67425;52.126;20.638;2024-01-15T01:57:49;17.25;;;8.98;;
55993;SDS011;67425;52.126;20.638;2024-01-15T02:00:15;12.48;;;7.40;;
55993;SDS011;67425;52.126;20.638;2024-01-15T02:02:41;15.57;;;8.32;;
55993;SDS011;67425;52.126;20.638;2024-01-15T02:05:07;16.77;;;9.50;;
55993;SDS011;67425;52.126;20.638;2024-01-15T02:07:34;21.92;;;10.32;;
55993;SDS011;67425;52.126;20.638;2024-01-15T02:09:59;28.92;;;7.38;;
55993;SDS011;67425;52.126;20.638;2024-01-15T02:12:25;13.77;;;8.15;;
55993;SDS011;67425;52.126;20.638;2024-01-15T02:14:51;19.02;;;9.85;;
55993;SDS011;67425;52.126;20.638;2024-01-15T02:17:16;8.85;;;5.90;;
55993;SDS011;67425;52.126;20.638;2024-01-15T02:19:41;19.20;;;9.80;;
55993;SDS011;67425;52.126;20.638;2024-01-15T02:22:07;18.08;;;7.95;;
55993;SDS011;67425;52.126;20.638;2024-01-15T02:24:32;11.95;;;7.15;;
55993;SDS011;67425;52.126;20.638;2024-01-15T02:26:58;17.08;;;8.85;;
55993;SDS011;67425;52.126;20.638;2024-01-15T02:29:23;16.35;;;8.93;;
55993;SDS011;67425;52.126;20.638;2024-01-15T02:31:48;19.02;;;8.73;;
55993;SDS011;67425;52.126;20.638;2024-01-15T02:34:14;24.10;;;9.57;;
55993;SDS011;67425;52.126;20.638;2024-01-15T02:36:39;19.02;;;7.57;;
55993;SDS011;67425;52.126;20.638;2024-01-15T02:39:05;28.30;;;8.18;;
55993;SDS011;67425;52.126;20.638;2024-01-15T02:41:30;18.95;;;7.93;;
55993;SDS011;67425;52.126;20.638;2024-01-15T02:43:55;18.77;;;9.38;;
55993;SDS011;67425;52.126;20.638;2024-01-15T02:46:21;21.67;;;9.35;;
55993;SDS011;67425;52.126;20.638;2024-01-15T02:48:46;15.95;;;9.23;;
55993;SDS011;67425;52.126;20.638;2024-01-15T02:51:11;22.17;;;7.97;;
55993;SDS011;67425;52.126;20.638;2024-01-15T02:53:37;23.08;;;9.52;;
55993;SDS011;67425;52.126;20.638;2024-01-15T02:56:02;14.20;;;7.43;;
55993;SDS011;67425;52.126;20.638;2024-01-15T02:58:28;16.70;;;8.57;;
55993;SDS011;67425;52.126;20.638;2024-01-15T03:00:53;26.65;;;9.20;;
55993;SDS011;67425;52.126;20.638;2024-01-15T03:03:18;12.63;;;5.50;;
55993;SDS011;67425;52.126;20.638;2024-01-15T03:05:44;13.85;;;7.25;;
55993;SDS011;67425;52.126;20.638;2024-01-15T03:08:09;15.82;;;8.35;;
55993;SDS011;67425;52.126;20.638;2024-01-15T03:10:34;18.60;;;8.93;;
55993;SDS011;67425;52.126;20.638;2024-01-15T03:13:00;19.95;;;9.48;;
55993;SDS011;67425;52.126;20.638;2024-01-15T03:15:25;17.60;;;8.82;;
55993;SDS011;67425;52.126;20.638;2024-01-15T03:17:50;15.05;;;8.60;;
55993;SDS011;67425;52.126;20.638;2024-01-15T03:20:16;17.15;;;9.10;;
55993;SDS011;67425;52.126;20.638;2024-01-15T03:22:41;17.05;;;8.50;;
55993;SDS011;67425;52.126;20.638;2024-01-15T03:25:07;21.55;;;9.57;;
55993;SDS011;67425;52.126;20.638;2024-01-15T03:27:33;23.08;;;9.80;;
55993;SDS011;67425;52.126;20.638;2024-01-15T03:29:58;16.13;;;8.13;;
55993;SDS011;67425;52.126;20.638;2024-01-15T03:32:24;19.23;;;8.60;;
55993;SDS011;67425;52.126;20.638;2024-01-15T03:34:49;20.73;;;9.18;;
55993;SDS011;67425;52.126;20.638;2024-01-15T03:37:15;13.27;;;7.35;;
55993;SDS011;67425;52.126;20.638;2024-01-15T03:39:40;7.78;;;4.70;;
55993;SDS011;67425;52.126;20.638;2024-01-15T03:42:06;14.77;;;8.23;;
55993;SDS011;67425;52.126;20.638;2024-01-15T03:44:31;18.75;;;8.35;;
55993;SDS011;67425;52.126;20.638;2024-01-15T03:46:57;22.23;;;10.77;;
55993;SDS011;67425;52.126;20.638;2024-01-15T03:49:23;14.38;;;6.88;;
55993;SDS011;67425;52.126;20.638;2024-01-15T03:51:48;19.90;;;7.93;;
55993;SDS011;67425;52.126;20.638;2024-01-15T03:54:13;14.00;;;8.65;;
55993;SDS011;67425;52.126;20.638;2024-01-15T03:56:39;20.08;;;10.25;;
55993;SDS011;67425;52.126;20.638;2024-01-15T03:59:04;19.70;;;8.77;;
55993;SDS011;67425;52.126;20.638;2024-01-15T04:01:29;12.15;;;2.95;;
55993;SDS011;67425;52.126;20.638;2024-01-15T04:03:55;16.50;;;7.63;;
55993;SDS011;67425;52.126;20.638;2024-01-15T04:06:20;15.20;;;6.55;;
55993;SDS011;67425;52.126;20.638;2024-01-15T04:08:46;15.30;;;7.53;;
55993;SDS011;67425;52.126;20.638;2024-01-15T04:11:11;15.90;;;8.68;;
55993;SDS011;67425;52.126;20.638;2024-01-15T04:13:36;11.38;;;6.10;;
55993;SDS011;67425;52.126;20.638;2024-01-15T04:16:02;10.15;;;6.22;;
55993;SDS011;67425;52.126;20.638;2024-01-15T04:18:28;13.90;;;8.52;;
55993;SDS011;67425;52.126;20.638;2024-01-15T04:20:53;14.82;;;8.77;;
55993;SDS011;67425;52.126;20.638;2024-01-15T04:23:19;9.95;;;6.22;;
55993;SDS011;67425;52.126;20.638;2024-01-15T04:25:44;8.90;;;5.68;;
55993;SDS011;67425;52.126;20.638;2024-01-15T04:28:11;9.88;;;6.63;;
55993;SDS011;67425;52.126;20.638;2024-01-15T04:30:36;6.70;;;4.15;;
55993;SDS011;67425;52.126;20.638;2024-01-15T04:33:02;16.98;;;8.43;;
55993;SDS011;67425;52.126;20.638;2024-01-15T04:35:27;9.88;;;5.95;;
55993;SDS011;67425;52.126;20.638;2024-01-15T04:37:52;16.63;;;8.43;;
55993;SDS011;67425;52.126;20.638;2024-01-15T04:40:18;14.57;;;5.97;;
55993;SDS011;67425;52.126;20.638;2024-01-15T04:42:43;15.48;;;8.30;;
55993;SDS011;67425;52.126;20.638;2024-01-15T04:45:10;14.60;;;7.97;;
55993;SDS011;67425;52.126;20.638;2024-01-15T04:47:36;12.35;;;6.72;;
55993;SDS011;67425;52.126;20.638;2024-01-15T04:50:02;18.33;;;8.70;;
55993;SDS011;67425;52.126;20.638;2024-01-15T04:52:28;14.90;;;7.03;;
55993;SDS011;67425;52.126;20.638;2024-01-15T04:54:53;21.25;;;8.40;;
55993;SDS011;67425;52.126;20.638;2024-01-15T04:57:19;11.60;;;8.15;;
55993;SDS011;67425;52.126;20.638;2024-01-15T04:59:44;14.75;;;7.30;;
55993;SDS011;67425;52.126;20.638;2024-01-15T05:02:09;16.33;;;8.95;;
55993;SDS011;67425;52.126;20.638;2024-01-15T05:04:35;16.30;;;8.43;;
55993;SDS011;67425;52.126;20.638;2024-01-15T05:07:00;12.63;;;7.68;;
55993;SDS011;67425;52.126;20.638;2024-01-15T05:09:25;18.80;;;8.68;;
55993;SDS011;67425;52.126;20.638;2024-01-15T05:11:51;16.42;;;7.28;;
55993;SDS011;67425;52.126;20.638;2024-01-15T05:14:16;19.02;;;8.95;;
55993;SDS011;67425;52.126;20.638;2024-01-15T05:16:48;17.40;;;7.40;;
55993;SDS011;67425;52.126;20.638;2024-01-15T05:19:14;11.13;;;5.47;;
55993;SDS011;67425;52.126;20.638;2024-01-15T05:21:40;15.82;;;7.57;;
55993;SDS011;67425;52.126;20.638;2024-01-15T05:24:05;14.18;;;6.78;;
55993;SDS011;67425;52.126;20.638;2024-01-15T05:26:30;13.60;;;7.07;;
55993;SDS011;67425;52.126;20.638;2024-01-15T05:28:56;16.58;;;7.38;;
55993;SDS011;67425;52.126;20.638;2024-01-15T05:31:21;8.48;;;4.35;;
55993;SDS011;67425;52.126;20.638;2024-01-15T05:33:47;13.57;;;5.53;;
55993;SDS011;67425;52.126;20.638;2024-01-15T05:36:12;10.00;;;6.05;;
55993;SDS011;67425;52.126;20.638;2024-01-15T05:38:38;17.10;;;7.43;;
55993;SDS011;67425;52.126;20.638;2024-01-15T05:41:04;17.88;;;7.75;;
55993;SDS011;67425;52.126;20.638;2024-01-15T05:43:30;11.75;;;6.07;;
55993;SDS011;67425;52.126;20.638;2024-01-15T05:45:55;6.72;;;4.78;;
55993;SDS011;67425;52.126;20.638;2024-01-15T05:48:21;22.00;;;7.07;;
55993;SDS011;67425;52.126;20.638;2024-01-15T05:50:46;13.63;;;6.88;;
55993;SDS011;67425;52.126;20.638;2024-01-15T05:53:11;14.48;;;8.40;;
55993;SDS011;67425;52.126;20.638;2024-01-15T05:55:37;13.25;;;7.72;;
55993;SDS011;67425;52.126;20.638;2024-01-15T05:58:03;13.77;;;7.82;;
55993;SDS011;67425;52.126;20.638;2024-01-15T06:00:29;10.65;;;4.55;;
55993;SDS011;67425;52.126;20.638;2024-01-15T06:02:54;6.05;;;4.47;;
55993;SDS011;67425;52.126;20.638;2024-01-15T06:05:19;10.50;;;6.93;;
55993;SDS011;67425;52.126;20.638;2024-01-15T06:07:45;15.75;;;8.00;;
55993;SDS011;67425;52.126;20.638;2024-01-15T06:10:10;9.75;;;6.30;;
55993;SDS011;67425;52.126;20.638;2024-01-15T06:12:36;19.05;;;8.88;;
55993;SDS011;67425;52.126;20.638;2024-01-15T06:15:01;14.02;;;7.22;;
55993;SDS011;67425;52.126;20.638;2024-01-15T06:17:27;14.10;;;8.13;;
55993;SDS011;67425;52.126;20.638;2024-01-15T06:19:52;12.38;;;6.78;;
55993;SDS011;67425;52.126;20.638;2024-01-15T06:22:18;14.55;;;8.27;;
55993;SDS011;67425;52.126;20.638;2024-01-15T06:24:43;8.45;;;4.88;;
55993;SDS011;67425;52.126;20.638;2024-01-15T06:27:08;16.30;;;7.95;;
55993;SDS011;67425;52.126;20.638;2024-01-15T06:29:36;13.68;;;9.13;;
55993;SDS011;67425;52.126;20.638;2024-01-15T06:32:03;15.95;;;7.88;;
55993;SDS011;67425;52.126;20.638;2024-01-15T06:34:29;20.42;;;7.43;;
55993;SDS011;67425;52.126;20.638;2024-01-15T06:36:54;17.58;;;7.18;;
55993;SDS011;67425;52.126;20.638;2024-01-15T06:39:19;13.43;;;8.02;;
55993;SDS011;67425;52.126;20.638;2024-01-15T06:41:45;16.92;;;8.77;;
55993;SDS011;67425;52.126;20.638;2024-01-15T06:44:10;16.85;;;8.55;;
55993;SDS011;67425;52.126;20.638;2024-01-15T06:46:36;13.13;;;6.75;;
55993;SDS011;67425;52.126;20.638;2024-01-15T06:49:02;16.73;;;8.90;;
55993;SDS011;67425;52.126;20.638;2024-01-15T06:51:27;16.90;;;6.78;;
55993;SDS011;67425;52.126;20.638;2024-01-15T06:53:54;11.15;;;5.82;;
55993;SDS011;67425;52.126;20.638;2024-01-15T06:56:19;15.65;;;8.25;;
55993;SDS011;67425;52.126;20.638;2024-01-15T06:58:44;13.70;;;7.65;;
55993;SDS011;67425;52.126;20.638;2024-01-15T07:01:10;11.65;;;6.15;;
55993;SDS011;67425;52.126;20.638;2024-01-15T07:03:35;10.70;;;6.68;;
55993;SDS011;67425;52.126;20.638;2024-01-15T07:06:00;13.30;;;5.65;;
55993;SDS011;67425;52.126;20.638;2024-01-15T07:08:26;9.40;;;5.15;;
55993;SDS011;67425;52.126;20.638;2024-01-15T07:10:51;12.52;;;6.45;;
55993;SDS011;67425;52.126;20.638;2024-01-15T07:13:17;9.73;;;5.22;;
55993;SDS011;67425;52.126;20.638;2024-01-15T07:15:42;17.80;;;9.38;;
55993;SDS011;67425;52.126;20.638;2024-01-15T07:18:08;22.38;;;9.00;;
55993;SDS011;67425;52.126;20.638;2024-01-15T07:20:33;17.73;;;8.77;;
55993;SDS011;67425;52.126;20.638;2024-01-15T07:22:59;13.93;;;6.93;;
55993;SDS011;67425;52.126;20.638;2024-01-15T07:25:24;17.25;;;7.55;;
55993;SDS011;67425;52.126;20.638;2024-01-15T07:27:51;12.65;;;7.22;;
55993;SDS011;67425;52.126;20.638;2024-01-15T07:33:17;21.35;;;9.13;;
55993;SDS011;67425;52.126;20.638;2024-01-15T07:35:42;14.23;;;9.00;;
55993;SDS011;67425;52.126;20.638;2024-01-15T07:38:07;18.77;;;8.82;;
55993;SDS011;67425;52.126;20.638;2024-01-15T07:40:34;10.45;;;6.32;;
55993;SDS011;67425;52.126;20.638;2024-01-15T07:42:59;16.25;;;8.40;;
55993;SDS011;67425;52.126;20.638;2024-01-15T07:45:25;12.85;;;6.45;;
55993;SDS011;67425;52.126;20.638;2024-01-15T07:47:50;12.45;;;7.80;;
55993;SDS011;67425;52.126;20.638;2024-01-15T07:50:16;10.98;;;7.35;;
55993;SDS011;67425;52.126;20.638;2024-01-15T07:52:41;12.35;;;6.43;;
55993;SDS011;67425;52.126;20.638;2024-01-15T07:55:09;13.68;;;7.47;;
55993;SDS011;67425;52.126;20.638;2024-01-15T07:57:35;10.43;;;5.65;;
55993;SDS011;67425;52.126;20.638;2024-01-15T08:00:01;12.73;;;7.40;;
55993;SDS011;67425;52.126;20.638;2024-01-15T08:02:28;14.27;;;6.95;;
55993;SDS011;67425;52.126;20.638;2024-01-15T08:04:54;14.50;;;8.00;;
55993;SDS011;67425;52.126;20.638;2024-01-15T08:07:19;11.88;;;8.18;;
55993;SDS011;67425;52.126;20.638;2024-01-15T08:09:44;16.13;;;8.20;;
55993;SDS011;67425;52.126;20.638;2024-01-15T08:12:11;25.80;;;7.40;;
55993;SDS011;67425;52.126;20.638;2024-01-15T08:14:37;16.50;;;8.27;;
55993;SDS011;67425;52.126;20.638;2024-01-15T08:17:03;11.30;;;6.82;;
55993;SDS011;67425;52.126;20.638;2024-01-15T08:19:28;12.98;;;8.00;;
55993;SDS011;67425;52.126;20.638;2024-01-15T08:21:53;14.48;;;7.55;;
55993;SDS011;67425;52.126;20.638;2024-01-15T08:24:19;16.33;;;8.07;;
55993;SDS011;67425;52.126;20.638;2024-01-15T08:26:44;8.32;;;5.43;;
55993;SDS011;67425;52.126;20.638;2024-01-15T08:29:10;15.70;;;8.90;;
55993;SDS011;67425;52.126;20.638;2024-01-15T08:31:35;10.85;;;6.53;;
55993;SDS011;67425;52.126;20.638;2024-01-15T08:34:01;13.18;;;7.97;;
55993;SDS011;67425;52.126;20.638;2024-01-15T08:36:27;22.20;;;11.65;;
55993;SDS011;67425;52.126;20.638;2024-01-15T08:38:54;19.83;;;10.00;;
55993;SDS011;67425;52.126;20.638;2024-01-15T08:41:20;25.85;;;9.70;;
55993;SDS011;67425;52.126;20.638;2024-01-15T08:43:45;17.65;;;9.45;;
55993;SDS011;67425;52.126;20.638;2024-01-15T08:46:10;8.35;;;6.05;;
55993;SDS011;67425;52.126;20.638;2024-01-15T08:48:36;11.93;;;5.97;;
55993;SDS011;67425;52.126;20.638;2024-01-15T08:51:01;14.48;;;7.57;;
55993;SDS011;67425;52.126;20.638;2024-01-15T08:53:27;8.50;;;5.50;;
55993;SDS011;67425;52.126;20.638;2024-01-15T08:55:53;9.82;;;5.97;;
55993;SDS011;67425;52.126;20.638;2024-01-15T08:58:18;10.85;;;6.20;;
55993;SDS011;67425;52.126;20.638;2024-01-15T09:00:43;8.48;;;6.32;;
55993;SDS011;67425;52.126;20.638;2024-01-15T09:03:09;8.73;;;5.47;;
55993;SDS011;67425;52.126;20.638;2024-01-15T09:05:35;8.00;;;5.13;;
55993;SDS011;67425;52.126;20.638;2024-01-15T09:08:00;8.98;;;4.75;;
55993;SDS011;67425;52.126;20.638;2024-01-15T09:10:25;12.30;;;4.45;;
55993;SDS011;67425;52.126;20.638;2024-01-15T09:12:51;8.30;;;4.75;;
55993;SDS011;67425;52.126;20.638;2024-01-15T09:15:16;12.40;;;5.45;;
55993;SDS011;67425;52.126;20.638;2024-01-15T09:17:42;11.00;;;4.07;;
55993;SDS011;67425;52.126;20.638;2024-01-15T09:20:08;5.35;;;4.20;;
55993;SDS011;67425;52.126;20.638;2024-01-15T09:22:34;6.65;;;3.47;;
55993;SDS011;67425;52.126;20.638;2024-01-15T09:25:00;5.18;;;3.08;;
55993;SDS011;67425;52.126;20.638;2024-01-15T09:27:25;14.45;;;4.72;;
55993;SDS011;67425;52.126;20.638;2024-01-15T09:29:51;11.85;;;3.53;;
55993;SDS011;67425;52.126;20.638;2024-01-15T09:32:17;18.13;;;3.67;;
55993;SDS011;67425;52.126;20.638;2024-01-15T09:34:43;5.85;;;2.60;;
55993;SDS011;67425;52.126;20.638;2024-01-15T09:37:09;7.57;;;3.47;;
55993;SDS011;67425;52.126;20.638;2024-01-15T09:39:34;7.55;;;3.15;;
55993;SDS011;67425;52.126;20.638;2024-01-15T09:41:59;8.90;;;4.20;;
55993;SDS011;67425;52.126;20.638;2024-01-15T09:44:26;4.90;;;2.78;;
55993;SDS011;67425;52.126;20.638;2024-01-15T09:46:52;5.07;;;3.30;;
55993;SDS011;67425;52.126;20.638;2024-01-15T09:49:19;5.63;;;2.88;;
55993;SDS011;67425;52.126;20.638;2024-01-15T09:51:45;7.78;;;3.90;;
55993;SDS011;67425;52.126;20.638;2024-01-15T09:54:10;14.80;;;4.80;;
55993;SDS011;67425;52.126;20.638;2024-01-15T09:56:38;2.50;;;1.92;;
55993;SDS011;67425;52.126;20.638;2024-01-15T09:59:04;9.48;;;3.95;;
55993;SDS011;67425;52.126;20.638;2024-01-15T10:01:33;4.38;;;3.38;;
55993;SDS011;67425;52.126;20.638;2024-01-15T10:04:03;8.48;;;3.90;;
55993;SDS011;67425;52.126;20.638;2024-01-15T10:06:28;9.80;;;3.45;;
55993;SDS011;67425;52.126;20.638;2024-01-15T10:08:54;19.05;;;3.38;;
55993;SDS011;67425;52.126;20.638;2024-01-15T10:11:23;6.10;;;3.17;;
55993;SDS011;67425;52.126;20.638;2024-01-15T10:13:48;3.17;;;2.95;;
55993;SDS011;67425;52.126;20.638;2024-01-15T10:16:18;9.30;;;4.18;;
55993;SDS011;67425;52.126;20.638;2024-01-15T10:18:44;6.38;;;4.30;;
55993;SDS011;67425;52.126;20.638;2024-01-15T10:21:10;14.48;;;4.03;;
55993;SDS011;67425;52.126;20.638;2024-01-15T10:23:35;4.20;;;3.53;;
55993;SDS011;67425;52.126;20.638;2024-01-15T10:26:01;9.25;;;3.95;;
55993;SDS011;67425;52.126;20.638;2024-01-15T10:28:27;6.72;;;3.65;;
55993;SDS011;67425;52.126;20.638;2024-01-15T10:30:55;11.05;;;5.45;;
55993;SDS011;67425;52.126;20.638;2024-01-15T10:33:22;12.90;;;5.47;;
55993;SDS011;67425;52.126;20.638;2024-01-15T10:35:54;8.23;;;4.75;;
55993;SDS011;67425;52.126;20.638;2024-01-15T10:38:21;6.65;;;5.03;;
55993;SDS011;67425;52.126;20.638;2024-01-15T10:40:53;8.50;;;5.43;;
55993;SDS011;67425;52.126;20.638;2024-01-15T10:43:19;15.07;;;4.90;;
55993;SDS011;67425;52.126;20.638;2024-01-15T10:45:46;11.93;;;5.30;;
55993;SDS011;67425;52.126;20.638;2024-01-15T10:48:12;8.48;;;4.82;;
55993;SDS011;67425;52.126;20.638;2024-01-15T10:50:38;4.88;;;3.95;;
55993;SDS011;67425;52.126;20.638;2024-01-15T10:53:04;4.13;;;2.53;;
55993;SDS011;67425;52.126;20.638;2024-01-15T10:55:33;9.52;;;4.57;;
55993;SDS011;67425;52.126;20.638;2024-01-15T10:58:00;9.70;;;5.63;;
55993;SDS011;67425;52.126;20.638;2024-01-15T11:00:26;10.80;;;4.55;;
55993;SDS011;67425;52.126;20.638;2024-01-15T11:02:52;8.52;;;4.80;;
55993;SDS011;67425;52.126;20.638;2024-01-15T11:05:21;11.60;;;4.18;;
55993;SDS011;67425;52.126;20.638;2024-01-15T11:07:50;6.15;;;3.22;;
55993;SDS011;67425;52.126;20.638;2024-01-15T11:13:10;5.85;;;3.92;;
55993;SDS011;67425;52.126;20.638;2024-01-15T11:15:54;14.90;;;4.55;;
55993;SDS011;67425;52.126;20.638;2024-01-15T11:18:21;8.88;;;4.50;;
55993;SDS011;67425;52.126;20.638;2024-01-15T11:23:50;8.88;;;5.47;;
55993;SDS011;67425;52.126;20.638;2024-01-15T11:26:38;15.55;;;4.85;;
55993;SDS011;67425;52.126;20.638;2024-01-15T11:29:09;9.85;;;5.05;;
55993;SDS011;67425;52.126;20.638;2024-01-15T11:37:17;20.90;;;6.35;;
55993;SDS011;67425;52.126;20.638;2024-01-15T11:39:46;9.95;;;3.85;;
55993;SDS011;67425;52.126;20.638;2024-01-15T11:42:12;12.55;;;6.18;;
55993;SDS011;67425;52.126;20.638;2024-01-15T11:44:38;10.93;;;4.07;;
55993;SDS011;67425;52.126;20.638;2024-01-15T11:52:18;9.20;;;4.22;;
55993;SDS011;67425;52.126;20.638;2024-01-15T11:54:53;9.85;;;3.65;;
55993;SDS011;67425;52.126;20.638;2024-01-15T11:58:08;14.07;;;6.85;;
55993;SDS011;67425;52.126;20.638;2024-01-15T12:00:19;9.57;;;3.97;;
55993;SDS011;67425;52.126;20.638;2024-01-15T12:02:46;8.75;;;5.70;;
55993;SDS011;67425;52.126;20.638;2024-01-15T12:05:13;18.48;;;6.35;;
55993;SDS011;67425;52.126;20.638;2024-01-15T12:07:40;10.32;;;5.05;;
55993;SDS011;67425;52.126;20.638;2024-01-15T12:10:10;12.75;;;6.00;;
55993;SDS011;67425;52.126;20.638;2024-01-15T12:12:39;14.73;;;5.60;;
55993;SDS011;67425;52.126;20.638;2024-01-15T12:15:16;8.30;;;4.57;;
55993;SDS011;67425;52.126;20.638;2024-01-15T12:17:41;21.67;;;8.90;;
55993;SDS011;67425;52.126;20.638;2024-01-15T12:20:07;6.18;;;4.38;;
55993;SDS011;67425;52.126;20.638;2024-01-15T12:22:33;17.40;;;7.60;;
55993;SDS011;67425;52.126;20.638;2024-01-15T12:24:58;13.75;;;7.15;;
55993;SDS011;67425;52.126;20.638;2024-01-15T12:27:24;10.77;;;4.80;;
55993;SDS011;67425;52.126;20.638;2024-01-15T12:29:50;16.30;;;7.53;;
55993;SDS011;67425;52.126;20.638;2024-01-15T12:32:15;21.35;;;6.13;;
55993;SDS011;67425;52.126;20.638;2024-01-15T12:34:40;24.15;;;6.28;;
55993;SDS011;67425;52.126;20.638;2024-01-15T12:37:09;17.25;;;5.43;;
55993;SDS011;67425;52.126;20.638;2024-01-15T12:39:35;13.23;;;6.47;;
55993;SDS011;67425;52.126;20.638;2024-01-15T12:42:01;10.02;;;5.78;;
55993;SDS011;67425;52.126;20.638;2024-01-15T12:44:27;11.38;;;4.90;;
55993;SDS011;67425;52.126;20.638;2024-01-15T12:46:53;17.95;;;7.45;;
55993;SDS011;67425;52.126;20.638;2024-01-15T12:49:18;17.33;;;6.50;;
55993;SDS011;67425;52.126;20.638;2024-01-15T12:51:51;19.65;;;6.68;;
55993;SDS011;67425;52.126;20.638;2024-01-15T12:54:22;11.45;;;6.30;;
55993;SDS011;67425;52.126;20.638;2024-01-15T12:56:48;15.07;;;8.18;;
55993;SDS011;67425;52.126;20.638;2024-01-15T12:59:14;20.75;;;9.13;;
55993;SDS011;67425;52.126;20.638;2024-01-15T13:01:39;22.90;;;7.85;;
55993;SDS011;67425;52.126;20.638;2024-01-15T13:04:06;10.77;;;5.25;;
55993;SDS011;67425;52.126;20.638;2024-01-15T13:06:36;15.38;;;6.25;;
55993;SDS011;67425;52.126;20.638;2024-01-15T13:09:05;17.85;;;8.23;;
55993;SDS011;67425;52.126;20.638;2024-01-15T13:11:31;13.18;;;4.85;;
55993;SDS011;67425;52.126;20.638;2024-01-15T13:13:57;12.73;;;6.32;;
55993;SDS011;67425;52.126;20.638;2024-01-15T13:16:23;14.55;;;7.60;;
55993;SDS011;67425;52.126;20.638;2024-01-15T13:18:48;22.95;;;8.52;;
55993;SDS011;67425;52.126;20.638;2024-01-15T13:21:14;34.08;;;7.45;;
55993;SDS011;67425;52.126;20.638;2024-01-15T13:23:40;12.57;;;6.45;;
55993;SDS011;67425;52.126;20.638;2024-01-15T13:26:06;29.35;;;9.15;;
55993;SDS011;67425;52.126;20.638;2024-01-15T13:28:32;17.92;;;7.38;;
55993;SDS011;67425;52.126;20.638;2024-01-15T13:30:57;19.23;;;8.20;;
55993;SDS011;67425;52.126;20.638;2024-01-15T13:33:23;12.68;;;6.25;;
55993;SDS011;67425;52.126;20.638;2024-01-15T13:35:48;19.20;;;7.30;;
55993;SDS011;67425;52.126;20.638;2024-01-15T13:38:15;23.45;;;8.13;;
55993;SDS011;67425;52.126;20.638;2024-01-15T13:40:40;18.75;;;8.10;;
55993;SDS011;67425;52.126;20.638;2024-01-15T13:43:06;17.38;;;5.38;;
55993;SDS011;67425;52.126;20.638;2024-01-15T13:45:33;3.10;;;2.30;;
55993;SDS011;67425;52.126;20.638;2024-01-15T13:47:59;9.57;;;5.60;;
55993;SDS011;67425;52.126;20.638;2024-01-15T13:50:25;11.32;;;4.80;;
55993;SDS011;67425;52.126;20.638;2024-01-15T13:52:50;9.73;;;5.03;;
55993;SDS011;67425;52.126;20.638;2024-01-15T13:55:15;11.30;;;4.15;;
55993;SDS011;67425;52.126;20.638;2024-01-15T13:57:41;8.27;;;4.63;;
55993;SDS011;67425;52.126;20.638;2024-01-15T14:00:07;15.85;;;6.70;;
55993;SDS011;67425;52.126;20.638;2024-01-15T14:02:36;9.10;;;5.18;;
55993;SDS011;67425;52.126;20.638;2024-01-15T14:05:01;15.70;;;4.88;;
55993;SDS011;67425;52.126;20.638;2024-01-15T14:07:27;15.82;;;5.20;;
55993;SDS011;67425;52.126;20.638;2024-01-15T14:09:52;17.42;;;6.60;;
55993;SDS011;67425;52.126;20.638;2024-01-15T14:12:18;10.65;;;5.68;;
55993;SDS011;67425;52.126;20.638;2024-01-15T14:14:43;14.73;;;5.22;;
55993;SDS011;67425;52.126;20.638;2024-01-15T14:17:08;10.10;;;4.05;;
55993;SDS011;67425;52.126;20.638;2024-01-15T14:19:34;17.80;;;6.78;;
55993;SDS011;67425;52.126;20.638;2024-01-15T14:21:59;19.15;;;5.63;;
55993;SDS011;67425;52.126;20.638;2024-01-15T14:24:24;16.48;;;6.07;;
55993;SDS011;67425;52.126;20.638;2024-01-15T14:26:50;10.90;;;4.93;;
55993;SDS011;67425;52.126;20.638;2024-01-15T14:29:15;14.55;;;7.80;;
55993;SDS011;67425;52.126;20.638;2024-01-15T14:31:40;15.40;;;6.10;;
55993;SDS011;67425;52.126;20.638;2024-01-15T14:34:06;11.48;;;5.18;;
55993;SDS011;67425;52.126;20.638;2024-01-15T14:36:32;19.23;;;6.90;;